createdAt,value
2022-10-04T00:00:43.386Z,99414.41
2022-10-04T00:02:02.694Z,99414.41
2022-10-04T00:03:23.711Z,99414.41
2022-10-04T00:04:40.104Z,99414.78
2022-10-04T00:05:42.322Z,99411.50
2022-10-04T00:06:55.239Z,99410.84
2022-10-04T00:08:30.972Z,99406.75
2022-10-04T00:09:47.679Z,99402.00
2022-10-04T00:10:50.152Z,99406.00
2022-10-04T00:11:56.936Z,99397.91
2022-10-04T00:13:05.922Z,99396.63
2022-10-04T00:14:18.224Z,99398.25
2022-10-04T00:15:32.528Z,99401.91
2022-10-04T00:16:40.842Z,99403.53
2022-10-04T00:17:42.905Z,99397.78
2022-10-04T00:18:46.150Z,99410.81
2022-10-04T00:19:50.875Z,99409.19
2022-10-04T00:20:55.454Z,99405.91
2022-10-04T00:21:57.080Z,99408.91
2022-10-04T00:23:36.491Z,99402.63
2022-10-04T00:25:01.659Z,99401.81
2022-10-04T00:26:10.711Z,99404.44
2022-10-04T00:27:26.287Z,99404.44
2022-10-04T00:28:36.761Z,99403.63
2022-10-04T00:29:44.479Z,99410.72
2022-10-04T00:31:07.465Z,99416.00
2022-10-04T00:32:11.863Z,99411.38
2022-10-04T00:33:38.390Z,99414.19
2022-10-04T00:34:52.387Z,99404.78
2022-10-04T00:35:54.249Z,99406.97
2022-10-04T00:36:57.188Z,99414.09
2022-10-04T00:38:07.315Z,99416.09
2022-10-04T00:39:08.958Z,99406.84
2022-10-04T00:40:20.653Z,99415.78
2022-10-04T00:41:23.492Z,99402.75
2022-10-04T00:42:40.237Z,99409.31
2022-10-04T00:43:49.726Z,99406.03
2022-10-04T00:45:02.397Z,99408.34
2022-10-04T00:46:21.282Z,99405.69
2022-10-04T00:47:39.269Z,99404.03
2022-10-04T00:48:53.977Z,99403.22
2022-10-04T00:50:21.606Z,99404.03
2022-10-04T00:51:38.523Z,99401.56
2022-10-04T00:52:53.979Z,99402.41
2022-10-04T00:54:09.090Z,99403.22
2022-10-04T00:55:43.191Z,99398.94
2022-10-04T00:56:54.931Z,99408.69
2022-10-04T00:58:02.723Z,99404.41
2022-10-04T00:59:40.070Z,99400.75
2022-10-04T01:00:43.186Z,99400.94
2022-10-04T01:01:54.276Z,99400.94
2022-10-04T01:03:11.908Z,99400.75
2022-10-04T01:04:41.160Z,99400.94
2022-10-04T01:05:53.747Z,99394.84
2022-10-04T01:07:02.157Z,99389.56
2022-10-04T01:08:13.604Z,99384.28
2022-10-04T01:09:18.507Z,99395.47
2022-10-04T01:10:47.343Z,99391.00
2022-10-04T01:12:10.156Z,99392.81
2022-10-04T01:13:39.069Z,99385.53
2022-10-04T01:15:04.924Z,99391.00
2022-10-04T01:16:19.723Z,99390.19
2022-10-04T01:17:22.543Z,99380.81
2022-10-04T01:18:24.199Z,99384.28
2022-10-04T01:19:29.704Z,99381.81
2022-10-04T01:20:50.232Z,99379.00
2022-10-04T01:22:18.335Z,99377.53
2022-10-04T01:23:42.081Z,99384.00
2022-10-04T01:24:45.917Z,99376.59
2022-10-04T01:25:51.953Z,99382.69
2022-10-04T01:26:54.340Z,99384.50
2022-10-04T01:27:56.170Z,99375.97
2022-10-04T01:29:08.814Z,99374.94
2022-10-04T01:30:16.970Z,99373.13
2022-10-04T01:31:18.996Z,99362.94
2022-10-04T01:32:21.056Z,99361.13
2022-10-04T01:33:22.912Z,99361.13
2022-10-04T01:34:28.070Z,99354.84
2022-10-04T01:35:29.843Z,99354.84
2022-10-04T01:36:33.903Z,99359.13
2022-10-04T01:37:36.692Z,99353.84
2022-10-04T01:38:38.515Z,99351.19
2022-10-04T01:39:40.837Z,99359.47
2022-10-04T01:40:54.102Z,99354.19
2022-10-04T01:42:20.791Z,99356.03
2022-10-04T01:43:33.001Z,99343.19
2022-10-04T01:44:55.276Z,99341.38
2022-10-04T01:46:09.104Z,99353.91
2022-10-04T01:47:24.281Z,99344.53
2022-10-04T01:48:34.603Z,99343.88
2022-10-04T01:49:41.934Z,99349.34
2022-10-04T01:50:51.327Z,99348.53
2022-10-04T01:52:20.224Z,99342.25
2022-10-04T01:53:35.458Z,99341.78
2022-10-04T01:54:49.748Z,99340.13
2022-10-04T01:56:10.737Z,99341.13
2022-10-04T01:57:34.975Z,99341.31
2022-10-04T01:58:58.969Z,99330.94
2022-10-04T02:00:10.084Z,99334.75
2022-10-04T02:01:26.411Z,99346.13
2022-10-04T02:02:51.143Z,99345.50
2022-10-04T02:03:56.904Z,99345.66
2022-10-04T02:05:01.805Z,99345.66
2022-10-04T02:06:08.612Z,99338.72
2022-10-04T02:07:16.304Z,99343.19
2022-10-04T02:08:27.915Z,99338.72
2022-10-04T02:09:38.755Z,99335.44
2022-10-04T02:10:43.573Z,99331.34
2022-10-04T02:11:54.052Z,99329.53
2022-10-04T02:12:57.650Z,99327.25
2022-10-04T02:14:00.408Z,99337.16
2022-10-04T02:15:07.861Z,99339.00
2022-10-04T02:16:12.198Z,99339.13
2022-10-04T02:17:15.837Z,99335.03
2022-10-04T02:18:22.670Z,99341.31
2022-10-04T02:19:34.381Z,99351.06
2022-10-04T02:20:40.647Z,99348.59
2022-10-04T02:21:44.338Z,99343.50
2022-10-04T02:22:52.329Z,99345.31
2022-10-04T02:23:54.547Z,99345.31
2022-10-04T02:24:57.921Z,99341.16
2022-10-04T02:25:59.693Z,99333.41
2022-10-04T02:27:01.552Z,99330.78
2022-10-04T02:28:05.252Z,99327.50
2022-10-04T02:29:09.498Z,99326.50
2022-10-04T02:30:14.068Z,99326.50
2022-10-04T02:31:42.871Z,99327.69
2022-10-04T02:32:57.969Z,99332.97
2022-10-04T02:34:00.735Z,99325.75
2022-10-04T02:35:04.140Z,99326.59
2022-10-04T02:36:09.318Z,99326.91
2022-10-04T02:37:12.397Z,99334.00
2022-10-04T02:38:23.750Z,99325.09
2022-10-04T02:39:33.866Z,99315.53
2022-10-04T02:40:49.197Z,99326.75
2022-10-04T02:42:09.192Z,99319.19
2022-10-04T02:43:22.819Z,99315.72
2022-10-04T02:44:45.767Z,99317.53
2022-10-04T02:46:07.330Z,99321.34
2022-10-04T02:47:29.594Z,99320.53
2022-10-04T02:48:45.793Z,99324.19
2022-10-04T02:50:06.091Z,99317.41
2022-10-04T02:51:39.017Z,99318.41
2022-10-04T02:52:52.379Z,99321.41
2022-10-04T02:54:07.052Z,99313.84
2022-10-04T02:55:24.788Z,99324.72
2022-10-04T02:56:27.040Z,99324.25
2022-10-04T02:57:32.957Z,99316.16
2022-10-04T02:58:40.358Z,99313.72
2022-10-04T02:59:42.200Z,99315.34
2022-10-04T03:00:57.638Z,99317.34
2022-10-04T03:02:02.199Z,99313.06
2022-10-04T03:03:16.469Z,99314.88
2022-10-04T03:04:23.299Z,99300.41
2022-10-04T03:05:25.222Z,99304.56
2022-10-04T03:06:32.863Z,99303.56
2022-10-04T03:07:38.651Z,99304.72
2022-10-04T03:08:55.085Z,99295.19
2022-10-04T03:09:56.903Z,99302.59
2022-10-04T03:11:01.756Z,99296.69
2022-10-04T03:12:05.754Z,99295.88
2022-10-04T03:13:08.196Z,99296.88
2022-10-04T03:14:16.942Z,99299.50
2022-10-04T03:15:19.822Z,99294.59
2022-10-04T03:16:23.620Z,99296.22
2022-10-04T03:17:25.711Z,99296.22
2022-10-04T03:18:28.902Z,99297.22
2022-10-04T03:19:33.507Z,99296.56
2022-10-04T03:20:40.318Z,99298.41
2022-10-04T03:21:44.880Z,99298.41
2022-10-04T03:22:52.111Z,99295.91
2022-10-04T03:23:54.448Z,99295.25
2022-10-04T03:24:58.360Z,99299.53
2022-10-04T03:26:33.311Z,99293.13
2022-10-04T03:27:36.436Z,99301.34
2022-10-04T03:28:38.568Z,99299.53
2022-10-04T03:29:45.009Z,99304.81
2022-10-04T03:30:48.960Z,99298.72
2022-10-04T03:31:58.109Z,99293.28
2022-10-04T03:33:00.388Z,99295.09
2022-10-04T03:34:02.530Z,99301.19
2022-10-04T03:35:15.275Z,99300.22
2022-10-04T03:36:19.288Z,99296.72
2022-10-04T03:37:21.747Z,99305.47
2022-10-04T03:38:26.352Z,99308.13
2022-10-04T03:39:36.202Z,99300.84
2022-10-04T03:40:45.939Z,99302.84
2022-10-04T03:41:48.373Z,99302.84
2022-10-04T03:42:50.432Z,99302.84
2022-10-04T03:43:55.407Z,99304.47
2022-10-04T03:45:20.454Z,99292.94
2022-10-04T03:46:25.305Z,99300.03
2022-10-04T03:47:32.481Z,99295.75
2022-10-04T03:48:50.123Z,99289.66
2022-10-04T03:49:55.316Z,99288.81
2022-10-04T03:50:59.180Z,99290.81
2022-10-04T03:52:03.065Z,99294.25
2022-10-04T03:53:24.258Z,99297.56
2022-10-04T03:54:27.961Z,99298.72
2022-10-04T03:55:41.122Z,99295.25
2022-10-04T03:56:42.975Z,99298.91
2022-10-04T03:57:45.063Z,99293.63
2022-10-04T03:58:49.648Z,99285.72
2022-10-04T03:59:52.781Z,99283.44
2022-10-04T04:01:35.704Z,99282.91
2022-10-04T04:03:09.439Z,99277.00
2022-10-04T04:04:39.117Z,99281.78
2022-10-04T04:05:50.161Z,99280.16
2022-10-04T04:07:03.122Z,99275.22
2022-10-04T04:08:32.377Z,99271.94
2022-10-04T04:09:44.196Z,99270.28
2022-10-04T04:10:54.855Z,99269.66
2022-10-04T04:12:00.257Z,99277.56
2022-10-04T04:13:33.241Z,99266.38
2022-10-04T04:14:35.176Z,99271.00
2022-10-04T04:15:45.476Z,99271.81
2022-10-04T04:16:48.520Z,99273.78
2022-10-04T04:17:55.401Z,99274.94
2022-10-04T04:19:03.789Z,99278.56
2022-10-04T04:20:35.739Z,99277.59
2022-10-04T04:21:38.028Z,99273.66
2022-10-04T04:22:46.539Z,99278.94
2022-10-04T04:23:55.303Z,99282.72
2022-10-04T04:25:15.619Z,99287.00
2022-10-04T04:26:34.913Z,99284.38
2022-10-04T04:27:40.686Z,99285.50
2022-10-04T04:28:50.236Z,99286.00
2022-10-04T04:29:54.993Z,99282.56
2022-10-04T04:31:08.401Z,99291.09
2022-10-04T04:32:25.191Z,99279.56
2022-10-04T04:33:42.933Z,99285.66
2022-10-04T04:35:00.568Z,99288.13
2022-10-04T04:36:07.624Z,99293.22
2022-10-04T04:37:11.128Z,99287.31
2022-10-04T04:38:25.838Z,99295.03
2022-10-04T04:39:45.157Z,99289.13
2022-10-04T04:40:47.674Z,99293.56
2022-10-04T04:41:50.728Z,99298.84
2022-10-04T04:42:57.561Z,99298.84
2022-10-04T04:43:59.908Z,99291.28
2022-10-04T04:45:14.198Z,99301.28
2022-10-04T04:46:27.039Z,99304.91
2022-10-04T04:47:42.060Z,99309.03
2022-10-04T04:48:46.586Z,99309.19
2022-10-04T04:49:49.881Z,99311.66
2022-10-04T04:50:57.680Z,99314.13
2022-10-04T04:52:00.034Z,99321.38
2022-10-04T04:53:13.935Z,99320.38
2022-10-04T04:54:18.825Z,99318.09
2022-10-04T04:55:26.153Z,99329.63
2022-10-04T04:56:30.732Z,99324.34
2022-10-04T04:57:33.942Z,99325.34
2022-10-04T04:58:42.361Z,99322.72
2022-10-04T04:59:55.590Z,99318.28
2022-10-04T05:01:00.323Z,99332.59
2022-10-04T05:02:03.453Z,99337.22
2022-10-04T05:03:18.517Z,99329.16
2022-10-04T05:04:23.746Z,99336.38
2022-10-04T05:05:34.253Z,99333.09
2022-10-04T05:06:39.184Z,99332.28
2022-10-04T05:07:43.469Z,99331.81
2022-10-04T05:08:50.951Z,99332.63
2022-10-04T05:09:52.682Z,99326.72
2022-10-04T05:11:09.430Z,99318.81
2022-10-04T05:12:22.606Z,99331.34
2022-10-04T05:13:34.334Z,99325.25
2022-10-04T05:14:41.054Z,99322.09
2022-10-04T05:15:44.285Z,99318.66
2022-10-04T05:16:55.157Z,99320.47
2022-10-04T05:17:57.390Z,99315.19
2022-10-04T05:19:04.122Z,99317.19
2022-10-04T05:20:06.682Z,99312.91
2022-10-04T05:21:28.532Z,99316.53
2022-10-04T05:22:32.731Z,99312.59
2022-10-04T05:23:35.304Z,99313.75
2022-10-04T05:24:44.674Z,99311.94
2022-10-04T05:25:47.198Z,99315.88
2022-10-04T05:27:01.157Z,99321.97
2022-10-04T05:28:03.127Z,99318.16
2022-10-04T05:29:15.503Z,99315.88
2022-10-04T05:30:56.028Z,99320.34
2022-10-04T05:32:29.433Z,99322.97
2022-10-04T05:33:49.649Z,99325.75
2022-10-04T05:34:52.915Z,99316.41
2022-10-04T05:36:25.274Z,99321.31
2022-10-04T05:37:44.199Z,99318.84
2022-10-04T05:39:36.600Z,99307.81
2022-10-04T05:41:01.142Z,99307.69
2022-10-04T05:42:41.433Z,99304.41
2022-10-04T05:43:50.229Z,99301.09
2022-10-04T05:44:57.940Z,99309.97
2022-10-04T05:46:20.588Z,99309.16
2022-10-04T05:47:27.992Z,99303.25
2022-10-04T05:48:30.617Z,99307.53
2022-10-04T05:49:46.290Z,99298.47
2022-10-04T05:50:48.779Z,99297.81
2022-10-04T05:52:01.558Z,99292.25
2022-10-04T05:53:20.976Z,99296.50
2022-10-04T05:54:28.310Z,99290.56
2022-10-04T05:55:43.309Z,99293.19
2022-10-04T05:57:21.065Z,99295.84
2022-10-04T05:58:49.247Z,99290.91
2022-10-04T06:00:15.648Z,99293.22
2022-10-04T06:01:38.210Z,99299.50
2022-10-04T06:03:15.502Z,99296.84
2022-10-04T06:05:08.473Z,99296.84
2022-10-04T06:06:55.855Z,99303.75
2022-10-04T06:08:09.402Z,99302.13
2022-10-04T06:09:47.434Z,99299.31
2022-10-04T06:11:15.451Z,99309.69
2022-10-04T06:12:59.277Z,99308.69
2022-10-04T06:14:24.813Z,99311.97
2022-10-04T06:15:52.901Z,99310.97
2022-10-04T06:17:09.698Z,99312.63
2022-10-04T06:18:45.132Z,99312.31
2022-10-04T06:20:08.324Z,99317.06
2022-10-04T06:21:50.260Z,99311.31
2022-10-04T06:23:06.471Z,99315.41
2022-10-04T06:24:27.111Z,99306.53
2022-10-04T06:25:43.459Z,99315.88
2022-10-04T06:26:52.551Z,99313.09
2022-10-04T06:27:57.850Z,99310.78
2022-10-04T06:29:10.517Z,99314.88
2022-10-04T06:30:18.884Z,99315.38
2022-10-04T06:31:32.468Z,99320.34
2022-10-04T06:33:05.173Z,99320.63
2022-10-04T06:34:37.559Z,99316.19
2022-10-04T06:36:46.951Z,99321.13
2022-10-04T06:38:02.965Z,99326.38
2022-10-04T06:39:42.018Z,99328.34
2022-10-04T06:41:16.086Z,99329.19
2022-10-04T06:43:22.518Z,99334.75
2022-10-04T06:44:46.508Z,99337.22
2022-10-04T06:46:18.472Z,99336.25
2022-10-04T06:47:38.497Z,99341.34
2022-10-04T06:49:07.884Z,99339.16
2022-10-04T06:50:42.503Z,99338.19
2022-10-04T06:52:22.482Z,99336.88
2022-10-04T06:54:07.379Z,99343.59
2022-10-04T06:55:21.374Z,99335.53
2022-10-04T06:57:01.643Z,99339.63
2022-10-04T06:58:16.096Z,99337.81
2022-10-04T07:00:02.430Z,99345.22
2022-10-04T07:01:28.352Z,99342.41
2022-10-04T07:02:49.125Z,99336.13
2022-10-04T07:04:15.373Z,99338.44
2022-10-04T07:05:37.544Z,99340.06
2022-10-04T07:06:51.896Z,99341.53
2022-10-04T07:08:12.808Z,99340.56
2022-10-04T07:09:27.353Z,99346.31
2022-10-04T07:10:56.662Z,99339.69
2022-10-04T07:12:12.413Z,99338.53
2022-10-04T07:13:14.126Z,99341.81
2022-10-04T07:14:44.063Z,99345.91
2022-10-04T07:16:21.386Z,99340.13
2022-10-04T07:17:36.066Z,99346.06
2022-10-04T07:18:56.502Z,99347.53
2022-10-04T07:20:01.229Z,99350.16
2022-10-04T07:21:17.062Z,99350.63
2022-10-04T07:22:35.943Z,99354.72
2022-10-04T07:23:58.688Z,99350.94
2022-10-04T07:25:19.491Z,99349.94
2022-10-04T07:26:37.916Z,99342.50
2022-10-04T07:27:47.782Z,99333.59
2022-10-04T07:29:10.543Z,99338.88
2022-10-04T07:30:20.661Z,99321.88
2022-10-04T07:31:34.564Z,99327.97
2022-10-04T07:32:44.651Z,99326.97
2022-10-04T07:33:55.009Z,99326.00
2022-10-04T07:35:09.619Z,99329.44
2022-10-04T07:36:21.854Z,99332.22
2022-10-04T07:37:30.883Z,99329.44
2022-10-04T07:38:46.002Z,99338.00
2022-10-04T07:40:18.403Z,99338.47
2022-10-04T07:41:32.122Z,99344.19
2022-10-04T07:42:54.715Z,99346.50
2022-10-04T07:44:16.041Z,99340.69
2022-10-04T07:45:29.897Z,99343.78
2022-10-04T07:47:03.874Z,99344.13
2022-10-04T07:48:23.005Z,99345.59
2022-10-04T07:49:26.899Z,99343.59
2022-10-04T07:50:39.708Z,99340.44
2022-10-04T07:52:18.506Z,99342.03
2022-10-04T07:53:46.964Z,99346.13
2022-10-04T07:55:39.120Z,99342.13
2022-10-04T07:56:54.383Z,99331.56
2022-10-04T07:58:14.005Z,99331.38
2022-10-04T07:59:29.609Z,99334.50
2022-10-04T08:01:06.650Z,99331.50
2022-10-04T08:02:32.815Z,99334.78
2022-10-04T08:04:22.102Z,99326.50
2022-10-04T08:05:32.680Z,99340.34
2022-10-04T08:07:13.383Z,99338.34
2022-10-04T08:08:27.771Z,99345.28
2022-10-04T08:09:57.930Z,99347.38
2022-10-04T08:11:37.853Z,99350.50
2022-10-04T08:13:16.910Z,99346.47
2022-10-04T08:14:45.655Z,99347.13
2022-10-04T08:15:47.754Z,99340.81
2022-10-04T08:17:15.389Z,99344.59
2022-10-04T08:19:06.391Z,99341.38
2022-10-04T08:20:36.340Z,99340.03
2022-10-04T08:22:07.627Z,99344.78
2022-10-04T08:23:45.173Z,99346.91
2022-10-04T08:25:25.471Z,99351.81
2022-10-04T08:26:52.267Z,99351.44
2022-10-04T08:28:31.992Z,99349.09
2022-10-04T08:30:15.020Z,99342.88
2022-10-04T08:32:01.816Z,99346.63
2022-10-04T08:33:42.233Z,99354.84
2022-10-04T08:35:05.142Z,99356.94
2022-10-04T08:36:56.560Z,99368.22
2022-10-04T08:38:21.153Z,99359.56
2022-10-04T08:40:18.647Z,99358.03
2022-10-04T08:41:35.285Z,99356.00
2022-10-04T08:42:58.761Z,99355.81
2022-10-04T08:44:41.492Z,99356.53
2022-10-04T08:46:17.576Z,99353.72
2022-10-04T08:47:51.150Z,99352.13
2022-10-04T08:49:08.048Z,99351.59
2022-10-04T08:50:27.635Z,99344.28
2022-10-04T08:51:41.116Z,99343.91
2022-10-04T08:53:39.443Z,99340.97
2022-10-04T08:55:35.032Z,99337.56
2022-10-04T08:57:04.841Z,99335.78
2022-10-04T08:58:31.560Z,99339.72
2022-10-04T09:00:13.728Z,99337.31
2022-10-04T09:02:10.033Z,99334.34
2022-10-04T09:04:01.511Z,99331.97
2022-10-04T09:05:23.880Z,99328.75
2022-10-04T09:06:31.285Z,99328.56
2022-10-04T09:07:52.071Z,99323.56
2022-10-04T09:09:34.099Z,99321.56
2022-10-04T09:10:48.420Z,99313.63
2022-10-04T09:12:20.031Z,99314.31
2022-10-04T09:13:59.144Z,99304.59
2022-10-04T09:15:35.101Z,99306.03
2022-10-04T09:16:46.844Z,99305.63
2022-10-04T09:18:29.466Z,99305.09
2022-10-04T09:20:36.802Z,99308.81
2022-10-04T09:21:49.814Z,99312.06
2022-10-04T09:23:33.616Z,99312.53
2022-10-04T09:24:45.235Z,99308.88
2022-10-04T09:26:20.063Z,99310.13
2022-10-04T09:27:56.687Z,99312.00
2022-10-04T09:29:38.310Z,99321.84
2022-10-04T09:31:39.623Z,99316.75
2022-10-04T09:33:04.244Z,99313.50
2022-10-04T09:34:27.054Z,99326.19
2022-10-04T09:36:22.630Z,99322.38
2022-10-04T09:37:50.548Z,99322.59
2022-10-04T09:39:29.024Z,99324.66
2022-10-04T09:40:47.399Z,99324.69
2022-10-04T09:41:55.078Z,99320.00
2022-10-04T09:43:28.318Z,99323.16
2022-10-04T09:44:46.056Z,99327.22
2022-10-04T09:46:17.903Z,99331.38
2022-10-04T09:47:41.161Z,99331.41
2022-10-04T09:49:18.843Z,99322.56
2022-10-04T09:50:42.805Z,99326.19
2022-10-04T09:52:05.759Z,99320.72
2022-10-04T09:53:47.218Z,99313.69
2022-10-04T09:55:22.540Z,99317.00
2022-10-04T09:57:18.702Z,99312.34
2022-10-04T09:58:51.184Z,99308.00
2022-10-04T10:00:22.188Z,99314.16
2022-10-04T10:02:04.445Z,99305.38
2022-10-04T10:03:54.314Z,99314.97
2022-10-04T10:05:30.232Z,99318.19
2022-10-04T10:06:34.612Z,99312.00
2022-10-04T10:07:52.262Z,99312.59
2022-10-04T10:10:06.159Z,99309.97
2022-10-04T10:12:02.351Z,99311.03
2022-10-04T10:13:50.931Z,99305.91
2022-10-04T10:15:01.168Z,99314.78
2022-10-04T10:16:33.048Z,99299.22
2022-10-04T10:17:58.399Z,99302.34
2022-10-04T10:19:38.239Z,99309.78
2022-10-04T10:21:44.709Z,99303.19
2022-10-04T10:23:02.948Z,99315.16
2022-10-04T10:24:19.360Z,99313.28
2022-10-04T10:25:41.532Z,99316.97
2022-10-04T10:26:55.310Z,99310.59
2022-10-04T10:28:46.704Z,99314.47
2022-10-04T10:29:59.305Z,99323.41
2022-10-04T10:31:35.948Z,99314.09
2022-10-04T10:32:55.804Z,99317.97
2022-10-04T10:34:42.178Z,99318.38
2022-10-04T10:36:40.819Z,99310.13
2022-10-04T10:38:20.418Z,99310.31
2022-10-04T10:40:09.173Z,99309.44
2022-10-04T10:41:48.098Z,99308.66
2022-10-04T10:43:09.663Z,99299.09
2022-10-04T10:44:26.640Z,99302.94
2022-10-04T10:45:50.693Z,99301.91
2022-10-04T10:47:20.351Z,99294.13
2022-10-04T10:49:02.656Z,99295.03
2022-10-04T10:50:58.494Z,99293.16
2022-10-04T10:52:43.440Z,99295.53
2022-10-04T10:54:13.531Z,99293.31
2022-10-04T10:55:36.410Z,99294.56
2022-10-04T10:57:10.663Z,99297.47
2022-10-04T10:58:58.734Z,99295.78
2022-10-04T11:00:19.789Z,99295.09
2022-10-04T11:01:53.309Z,99300.06
2022-10-04T11:03:35.601Z,99297.25
2022-10-04T11:04:43.758Z,99289.88
2022-10-04T11:06:24.273Z,99287.72
2022-10-04T11:07:46.265Z,99290.81
2022-10-04T11:09:09.290Z,99288.91
2022-10-04T11:10:14.263Z,99281.25
2022-10-04T11:11:50.308Z,99280.16
2022-10-04T11:13:25.788Z,99287.84
2022-10-04T11:15:06.163Z,99276.50
2022-10-04T11:16:47.652Z,99281.22
2022-10-04T11:18:18.790Z,99282.41
2022-10-04T11:19:41.503Z,99274.81
2022-10-04T11:21:25.644Z,99264.75
2022-10-04T11:23:01.929Z,99264.34
2022-10-04T11:24:06.543Z,99259.38
2022-10-04T11:25:08.176Z,99260.53
2022-10-04T11:27:13.695Z,99267.34
2022-10-04T11:28:27.873Z,99257.47
2022-10-04T11:29:55.234Z,99257.28
2022-10-04T11:31:45.778Z,99252.56
2022-10-04T11:33:28.236Z,99245.75
2022-10-04T11:35:26.539Z,99254.66
2022-10-04T11:37:01.754Z,99244.22
2022-10-04T11:38:35.515Z,99241.34
2022-10-04T11:40:06.594Z,99244.38
2022-10-04T11:41:47.645Z,99232.41
2022-10-04T11:43:11.252Z,99236.19
2022-10-04T11:44:34.142Z,99232.56
2022-10-04T11:46:23.225Z,99244.25
2022-10-04T11:48:01.483Z,99242.16
2022-10-04T11:49:14.405Z,99240.66
2022-10-04T11:50:24.768Z,99240.56
2022-10-04T11:52:08.336Z,99236.94
2022-10-04T11:54:12.243Z,99233.56
2022-10-04T11:56:04.248Z,99228.31
2022-10-04T11:57:39.886Z,99231.47
2022-10-04T11:59:25.211Z,99229.72
2022-10-04T12:00:58.845Z,99226.91
2022-10-04T12:02:29.430Z,99230.28
2022-10-04T12:03:59.194Z,99223.31
2022-10-04T12:05:33.404Z,99224.94
2022-10-04T12:07:22.564Z,99226.81
2022-10-04T12:08:48.189Z,99228.31
2022-10-04T12:10:10.821Z,99231.44
2022-10-04T12:11:52.167Z,99225.50
2022-10-04T12:13:12.343Z,99223.06
2022-10-04T12:14:59.419Z,99229.13
2022-10-04T12:16:41.140Z,99223.66
2022-10-04T12:18:05.173Z,99223.53
2022-10-04T12:19:39.531Z,99228.06
2022-10-04T12:21:07.007Z,99223.16
2022-10-04T12:22:29.716Z,99218.06
2022-10-04T12:23:53.116Z,99216.19
2022-10-04T12:25:31.995Z,99221.53
2022-10-04T12:27:31.163Z,99221.91
2022-10-04T12:29:06.118Z,99221.91
2022-10-04T12:30:30.832Z,99220.50
2022-10-04T12:31:36.796Z,99221.91
2022-10-04T12:33:22.110Z,99210.53
2022-10-04T12:35:04.590Z,99206.31
2022-10-04T12:36:36.193Z,99205.88
2022-10-04T12:38:08.746Z,99211.81
2022-10-04T12:39:38.252Z,99216.91
2022-10-04T12:41:45.826Z,99208.31
2022-10-04T12:43:43.439Z,99205.88
2022-10-04T12:45:32.063Z,99209.38
2022-10-04T12:46:45.895Z,99211.91
2022-10-04T12:48:24.021Z,99202.97
2022-10-04T12:49:34.632Z,99203.22
2022-10-04T12:50:48.397Z,99201.13
2022-10-04T12:52:20.626Z,99199.38
2022-10-04T12:53:43.555Z,99203.91
2022-10-04T12:54:53.002Z,99196.47
2022-10-04T12:56:06.583Z,99204.84
2022-10-04T12:57:29.459Z,99198.53
2022-10-04T12:59:02.840Z,99196.47
2022-10-04T13:00:25.093Z,99189.59
2022-10-04T13:01:51.505Z,99196.59
2022-10-04T13:03:05.158Z,99187.28
2022-10-04T13:04:26.393Z,99190.88
2022-10-04T13:06:09.943Z,99192.63
2022-10-04T13:07:14.690Z,99188.91
2022-10-04T13:08:41.411Z,99184.50
2022-10-04T13:10:24.927Z,99186.94
2022-10-04T13:11:53.251Z,99186.56
2022-10-04T13:13:29.763Z,99190.41
2022-10-04T13:14:45.073Z,99191.22
2022-10-04T13:18:43.754Z,99188.50
2022-10-04T13:19:56.574Z,99186.88
2022-10-04T13:21:14.584Z,99181.88
2022-10-04T13:22:57.623Z,99190.25
2022-10-04T13:24:54.944Z,99191.88
2022-10-04T13:26:11.371Z,99184.97
2022-10-04T13:27:22.286Z,99191.94
2022-10-04T13:29:03.292Z,99188.59
2022-10-04T13:30:23.663Z,99190.69
2022-10-04T13:31:49.053Z,99198.81
2022-10-04T13:33:10.387Z,99192.41
2022-10-04T13:34:32.557Z,99185.19
2022-10-04T13:35:52.117Z,99182.25
2022-10-04T13:37:37.866Z,99181.81
2022-10-04T13:38:48.969Z,99177.97
2022-10-04T13:40:21.915Z,99179.94
2022-10-04T13:42:05.155Z,99179.69
2022-10-04T13:43:33.160Z,99169.81
2022-10-04T13:45:08.109Z,99175.72
2022-10-04T13:46:52.188Z,99171.44
2022-10-04T13:48:15.163Z,99167.69
2022-10-04T13:49:36.808Z,99173.84
2022-10-04T13:51:23.652Z,99178.50
2022-10-04T13:53:18.176Z,99176.66
2022-10-04T13:54:58.043Z,99173.16
2022-10-04T13:56:36.966Z,99176.66
2022-10-04T13:58:38.854Z,99177.25
2022-10-04T14:00:05.231Z,99172.09
2022-10-04T14:02:00.780Z,99167.59
2022-10-04T14:03:32.702Z,99168.41
2022-10-04T14:05:08.213Z,99166.19
2022-10-04T14:07:06.894Z,99164.66
2022-10-04T14:08:30.004Z,99166.75
2022-10-04T14:09:55.769Z,99160.81
2022-10-04T14:12:18.332Z,99160.38
2022-10-04T14:13:58.048Z,99164.53
2022-10-04T14:15:56.187Z,99158.59
2022-10-04T14:17:31.854Z,99162.81
2022-10-04T14:19:06.959Z,99168.66
2022-10-04T14:20:36.188Z,99160.63
2022-10-04T14:22:08.273Z,99164.94
2022-10-04T14:23:33.639Z,99161.81
2022-10-04T14:25:21.313Z,99162.72
2022-10-04T14:26:48.368Z,99167.19
2022-10-04T14:28:21.251Z,99167.41
2022-10-04T14:30:12.464Z,99154.28
2022-10-04T14:31:36.842Z,99153.69
2022-10-04T14:33:35.188Z,99148.13
2022-10-04T14:34:55.926Z,99153.03
2022-10-04T14:36:40.926Z,99155.47
2022-10-04T14:38:47.356Z,99147.69
2022-10-04T14:40:29.866Z,99145.00
2022-10-04T14:42:28.448Z,99140.09
2022-10-04T14:44:03.825Z,99140.09
2022-10-04T14:45:21.070Z,99139.53
2022-10-04T14:47:13.584Z,99143.63
2022-10-04T14:48:50.784Z,99137.91
2022-10-04T14:51:01.120Z,99140.59
2022-10-04T14:53:04.329Z,99139.78
2022-10-04T14:54:28.863Z,99136.19
2022-10-04T14:56:20.906Z,99138.53
2022-10-04T14:57:50.102Z,99137.38
2022-10-04T14:59:23.067Z,99142.41
2022-10-04T15:00:56.518Z,99142.53
2022-10-04T15:02:01.324Z,99134.41
2022-10-04T15:03:28.785Z,99139.53
2022-10-04T15:04:48.858Z,99133.00
2022-10-04T15:05:53.429Z,99136.16
2022-10-04T15:07:30.095Z,99136.38
2022-10-04T15:09:18.452Z,99138.47
2022-10-04T15:10:33.004Z,99134.28
2022-10-04T15:12:21.555Z,99138.47
2022-10-04T15:13:39.601Z,99137.66
2022-10-04T15:15:30.700Z,99129.03
2022-10-04T15:16:58.106Z,99132.44
2022-10-04T15:18:22.122Z,99132.91
2022-10-04T15:19:50.472Z,99133.34
2022-10-04T15:21:32.916Z,99134.66
2022-10-04T15:22:54.314Z,99133.50
2022-10-04T15:24:18.096Z,99133.97
2022-10-04T15:25:57.119Z,99133.38
2022-10-04T15:27:33.033Z,99131.97
2022-10-04T15:29:17.433Z,99135.38
2022-10-04T15:30:34.542Z,99129.09
2022-10-04T15:32:04.132Z,99124.78
2022-10-04T15:33:32.942Z,99124.44
2022-10-04T15:34:48.760Z,99132.09
2022-10-04T15:36:02.360Z,99133.59
2022-10-04T15:37:04.046Z,99124.44
2022-10-04T15:38:53.992Z,99126.88
2022-10-04T15:40:18.659Z,99130.03
2022-10-04T15:41:42.868Z,99131.75
2022-10-04T15:43:19.368Z,99123.50
2022-10-04T15:45:01.703Z,99124.16
2022-10-04T15:46:25.171Z,99120.56
2022-10-04T15:47:51.336Z,99124.25
2022-10-04T15:49:14.592Z,99123.69
2022-10-04T15:50:56.001Z,99123.34
2022-10-04T15:52:39.098Z,99119.25
2022-10-04T15:53:55.980Z,99117.88
2022-10-04T15:55:36.638Z,99116.00
2022-10-04T15:56:41.300Z,99105.66
2022-10-04T15:58:04.188Z,99116.13
2022-10-04T15:59:39.547Z,99110.19
2022-10-04T16:01:21.272Z,99107.50
2022-10-04T16:03:07.442Z,99094.88
2022-10-04T16:04:40.553Z,99104.97
2022-10-04T16:06:08.762Z,99096.38
2022-10-04T16:07:40.216Z,99100.28
2022-10-04T16:09:18.267Z,99090.09
2022-10-04T16:10:58.440Z,99092.66
2022-10-04T16:12:06.311Z,99091.22
2022-10-04T16:13:16.862Z,99095.97